Agua Nueva, Texas
Current Conditions -  °F | °C
As of 4:15 AM on Saturday 22 Nov 2014 (Local Time) from KHBV Reporting Station
Overcast Overcast  
Wind Chill: 70°   Ceiling: 1500
Heat Index: 70°   Visibility: 10mi
Dew Point: 66°   Wind: 13mph
Humidity: 89%   Direction: 120°ESE
Pressure: 29.94"   Gusts: 21mph
Location:  27.0695°N, 98.7494°W
Report Text: KHBV 221015Z AUTO 12011G18KT 10SM SCT010 BKN015 OVC023 21/19 A2994 RMK AO2 T02100191
Loading
Personal Weather Stations






























Interactive Weather Map New forecast layout! Learn more

10-Day Weather Forecast

Advertisements
Track Severe Weather on mobile